Bookmark and Share
Track history (hours):
 

Malaviya Twenty

Last reported at 2014-Apr-18 17:33 UTC. Time now 2014-Apr-18 18:19 UTC.
Position N 52°36' E 001°44'.

Length 72 m; draft 4.2 m.

Type: Ship. MMSI: 419504000.

NotesDate/timePositionNaut miles runAvg speedWind from/ knotsBaromVisibWave heightAir tempDewpointWater temp
2014-Apr-18 17:33N 52°36' E 001°44'0 0.0
2014-Apr-18 16:33N 52°36' E 001°44'0 0.0
2014-Apr-18 15:33N 52°36' E 001°44'0 0.0
2014-Apr-18 14:33N 52°36' E 001°44'0 0.0
2014-Apr-18 13:33N 52°36' E 001°44'0 0.0
2014-Apr-18 12:33N 52°36' E 001°44'0 0.0
2014-Apr-18 11:33N 52°36' E 001°44'0 0.0
2014-Apr-18 10:33N 52°36' E 001°44'0 0.0
2014-Apr-18 09:33N 52°36' E 001°44'0 0.0
2014-Apr-18 08:33N 52°36' E 001°44'0 0.0
2014-Apr-18 07:33N 52°36' E 001°44'0 0.0
2014-Apr-18 06:33N 52°36' E 001°44'0 0.0
2014-Apr-18 05:33N 52°36' E 001°44'2 1.6
2014-Apr-18 04:33N 52°34' E 001°45'6 5.5
2014-Apr-18 03:33N 52°40' E 001°46'7 6.8
2014-Apr-18 02:33N 52°46' E 001°43'8 7.8
2014-Apr-18 01:33N 52°53' E 001°36'8 8.0
2014-Apr-18 00:33N 52°60' E 001°29'9 8.8
2014-Apr-17 23:33N 53°09' E 001°28'26 1.2
2014-Apr-17 02:33N 53°35' E 001°28'1312.8
2014-Apr-17 01:33N 53°22' E 001°28'1312.9
2014-Apr-17 00:33N 53°09' E 001°28'1211.8
2014-Apr-16 23:33N 52°58' E 001°32'1111.2
2014-Apr-16 22:33N 52°48' E 001°41'9 8.9
2014-Apr-16 21:33N 52°40' E 001°46'5 4.8
2014-Apr-16 20:33N 52°35' E 001°44'0 0.4
2014-Apr-16 19:33N 52°35' E 001°44'0 0.0
2014-Apr-16 18:33N 52°35' E 001°44'0 0.0
2014-Apr-16 17:34N 52°35' E 001°44'0 0.0
2014-Apr-16 16:34N 52°35' E 001°44'4 4.3
2014-Apr-16 15:33N 52°40' E 001°46'9 9.2
2014-Apr-16 14:33N 52°48' E 001°53'1010.2
2014-Apr-16 13:34N 52°55' E 002°04'1211.3
2014-Apr-16 12:32N 52°59' E 002°22'1211.5
2014-Apr-16 11:30N 53°10' E 002°31'8 8.4
2014-Apr-16 10:30N 53°18' E 002°34'0 0.0
2014-Apr-16 09:16N 53°18' E 002°34'0 0.0
2014-Apr-16 08:34N 53°18' E 002°34'0 0.1
2014-Apr-16 06:33N 53°18' E 002°34'0 0.1
2014-Apr-16 05:30N 53°18' E 002°34'1 0.9
2014-Apr-16 04:33N 53°18' E 002°33'2 1.5
2014-Apr-16 03:27N 53°19' E 002°32'2 1.1
2014-Apr-16 01:16N 53°17' E 002°32'0 0.4
2014-Apr-16 00:32N 53°17' E 002°32'0 0.4
2014-Apr-15 23:33N 53°17' E 002°32'2 0.4
2014-Apr-15 19:27N 53°18' E 002°34'26 1.0
2014-Apr-14 18:33N 52°58' E 002°09'9 9.0
2014-Apr-14 17:34N 52°52' E 001°58'9 8.7
2014-Apr-14 16:34N 52°45' E 001°50'8 8.3
2014-Apr-14 15:34N 52°37' E 001°46'2 1.8
2014-Apr-14 14:34N 52°35' E 001°44'0 0.0
2014-Apr-14 13:34N 52°35' E 001°44'0 0.0
2014-Apr-14 11:33N 52°35' E 001°44'0 0.0
2014-Apr-14 10:33N 52°35' E 001°44'0 0.0
2014-Apr-14 09:33N 52°35' E 001°44'0 0.2
2014-Apr-14 08:31N 52°36' E 001°44'0 0.0
2014-Apr-14 07:31N 52°36' E 001°44'0 0.0
2014-Apr-14 06:31N 52°36' E 001°44'0 0.0
2014-Apr-14 05:31N 52°36' E 001°44'52 1.1
2014-Apr-12 08:10N 53°18' E 002°34'0 0.1
2014-Apr-12 07:33N 53°18' E 002°34'0 0.4
2014-Apr-12 06:34N 53°18' E 002°34'0 0.0
2014-Apr-12 05:33N 53°18' E 002°34'0 0.0
2014-Apr-12 04:29N 53°18' E 002°34'0 0.0
2014-Apr-12 03:26N 53°18' E 002°34'0 0.3
2014-Apr-12 02:34N 53°18' E 002°34'3 3.2
2014-Apr-12 01:33N 53°15' E 002°33'9 9.5
2014-Apr-12 00:33N 53°06' E 002°27'9 9.3
2014-Apr-11 23:33N 52°59' E 002°17'1110.6
2014-Apr-11 22:34N 52°54' E 002°02'1211.5
2014-Apr-11 21:34N 52°45' E 001°50'10 9.8
2014-Apr-11 20:34N 52°35' E 001°46'1 1.2
2014-Apr-11 19:33N 52°36' E 001°44'0 0.0
2014-Apr-11 18:33N 52°36' E 001°44'0 0.0
2014-Apr-11 17:33N 52°36' E 001°44'0 0.0
2014-Apr-11 16:33N 52°36' E 001°44'0 0.0
2014-Apr-11 15:33N 52°36' E 001°44'0 0.1
2014-Apr-11 14:33N 52°35' E 001°44'0 0.0
2014-Apr-11 13:32N 52°35' E 001°44'0 0.0
2014-Apr-11 12:32N 52°35' E 001°44'0 0.0
2014-Apr-11 11:32N 52°35' E 001°44'0 0.0
2014-Apr-11 10:32N 52°35' E 001°44'0 0.0
2014-Apr-11 09:32N 52°35' E 001°44'0 0.0
2014-Apr-11 08:32N 52°35' E 001°44'0 0.0
2014-Apr-11 07:32N 52°35' E 001°44'0 0.0
2014-Apr-11 06:32N 52°35' E 001°44'0 0.0
2014-Apr-11 05:32N 52°35' E 001°44'1 1.3
2014-Apr-11 04:33N 52°36' E 001°46'7 7.1
2014-Apr-11 03:33N 52°43' E 001°48'3 3.4
2014-Apr-11 02:33N 52°46' E 001°51'1010.2
2014-Apr-11 01:33N 52°54' E 002°01'1010.0
2014-Apr-11 00:33N 52°59' E 002°16'9 9.2
2014-Apr-10 23:32N 53°05' E 002°27'14 2.3
2014-Apr-10 17:32N 53°18' E 002°34'0 0.3
2014-Apr-10 16:32N 53°18' E 002°34'  

Dump ship's entire track history

sailing weather and tide predictions

Malaviya Twenty — AUEV — position and weather